createdAt,value
2023-03-26T00:01:16.011Z,99879.38
2023-03-26T00:03:43.759Z,99887.00
2023-03-26T00:06:13.212Z,99887.38
2023-03-26T00:08:41.887Z,99884.91
2023-03-26T00:11:11.216Z,99884.63
2023-03-26T00:13:38.300Z,99887.63
2023-03-26T00:16:05.558Z,99885.44
2023-03-26T00:18:32.218Z,99890.66
2023-03-26T00:21:00.547Z,99891.41
2023-03-26T00:23:28.585Z,99893.44
2023-03-26T00:25:55.878Z,99892.31
2023-03-26T00:28:24.018Z,99889.28
2023-03-26T00:30:58.152Z,99884.16
2023-03-26T00:33:24.714Z,99889.75
2023-03-26T00:35:57.876Z,99885.41
2023-03-26T00:38:25.776Z,99893.69
2023-03-26T00:40:53.201Z,99875.03
2023-03-26T00:43:21.612Z,99886.53
2023-03-26T00:45:53.824Z,99884.72
2023-03-26T00:48:28.930Z,99884.97
2023-03-26T00:51:00.992Z,99875.94
2023-03-26T00:53:27.578Z,99867.75
2023-03-26T00:55:54.355Z,99874.66
2023-03-26T00:58:21.028Z,99873.53
2023-03-26T01:00:59.893Z,99874.06
2023-03-26T01:03:28.575Z,99876.38
2023-03-26T01:06:09.035Z,99879.44
2023-03-26T01:08:44.819Z,99878.09
2023-03-26T01:11:17.954Z,99880.09
2023-03-26T01:13:54.008Z,99877.69
2023-03-26T01:16:36.714Z,99879.88
2023-03-26T01:19:12.125Z,99873.59
2023-03-26T01:21:38.956Z,99878.78
2023-03-26T01:24:08.001Z,99877.91
2023-03-26T01:26:44.080Z,99862.56
2023-03-26T01:29:24.274Z,99871.06
2023-03-26T01:32:03.268Z,99855.69
2023-03-26T01:35:09.177Z,99851.91
2023-03-26T01:37:57.583Z,99860.72
2023-03-26T01:40:45.871Z,99852.56
2023-03-26T01:43:18.338Z,99850.38
2023-03-26T01:45:47.769Z,99848.72
2023-03-26T01:48:14.380Z,99849.03
2023-03-26T01:50:41.131Z,99857.13
2023-03-26T01:53:09.808Z,99862.88
2023-03-26T01:55:56.848Z,99848.34
2023-03-26T01:58:35.116Z,99850.56
2023-03-26T02:01:07.646Z,99844.00
2023-03-26T02:03:46.825Z,99838.25
2023-03-26T02:06:34.477Z,99841.25
2023-03-26T02:09:06.604Z,99843.56
2023-03-26T02:11:35.931Z,99834.75
2023-03-26T02:14:04.719Z,99840.81
2023-03-26T02:16:31.506Z,99841.81
2023-03-26T02:18:58.181Z,99846.31
2023-03-26T02:21:25.765Z,99850.00
2023-03-26T02:23:55.658Z,99842.06
2023-03-26T02:26:22.373Z,99843.13
2023-03-26T02:28:48.918Z,99844.41
2023-03-26T02:31:15.457Z,99842.50
2023-03-26T02:33:42.241Z,99849.34
2023-03-26T02:36:09.194Z,99849.59
2023-03-26T02:38:35.978Z,99850.47
2023-03-26T02:41:02.861Z,99846.66
2023-03-26T02:43:29.573Z,99847.13
2023-03-26T02:45:57.064Z,99847.84
2023-03-26T02:48:24.153Z,99862.09
2023-03-26T02:50:50.875Z,99864.34
2023-03-26T02:53:17.434Z,99869.00
2023-03-26T02:55:43.989Z,99863.78
2023-03-26T02:58:13.641Z,99872.06
2023-03-26T03:00:40.180Z,99865.81
2023-03-26T03:03:07.005Z,99860.03
2023-03-26T03:05:34.303Z,99871.09
2023-03-26T03:08:00.912Z,99864.47
2023-03-26T03:10:28.437Z,99867.25
2023-03-26T03:12:55.122Z,99869.50
2023-03-26T03:15:21.731Z,99873.94
2023-03-26T03:17:48.282Z,99866.78
2023-03-26T03:20:15.012Z,99869.03
2023-03-26T03:22:41.545Z,99870.13
2023-03-26T03:25:08.799Z,99872.00
2023-03-26T03:27:36.119Z,99872.00
2023-03-26T03:30:02.684Z,99861.56
2023-03-26T03:32:29.285Z,99861.25
2023-03-26T03:34:55.898Z,99867.00
2023-03-26T03:37:22.448Z,99870.88
2023-03-26T03:39:49.122Z,99868.94
2023-03-26T03:42:15.693Z,99876.09
2023-03-26T03:44:42.316Z,99883.84
2023-03-26T03:47:08.878Z,99873.88
2023-03-26T03:49:35.491Z,99877.97
2023-03-26T03:52:02.043Z,99874.72
2023-03-26T03:54:28.561Z,99868.66
2023-03-26T03:56:55.142Z,99867.00
2023-03-26T03:59:21.748Z,99871.38
2023-03-26T04:01:48.300Z,99878.25
2023-03-26T04:04:14.861Z,99874.94
2023-03-26T04:06:41.366Z,99876.03
2023-03-26T04:09:08.042Z,99870.56
2023-03-26T04:11:34.545Z,99881.53
2023-03-26T04:14:01.099Z,99869.75
2023-03-26T04:16:27.802Z,99872.25
2023-03-26T04:18:54.462Z,99871.16
2023-03-26T04:21:20.950Z,99878.34
2023-03-26T04:23:47.523Z,99876.44
2023-03-26T04:26:17.376Z,99888.28
2023-03-26T04:28:50.553Z,99897.63
2023-03-26T04:31:20.633Z,99900.44
2023-03-26T04:33:47.835Z,99899.59
2023-03-26T04:36:16.253Z,99901.81
2023-03-26T04:38:46.674Z,99907.06
2023-03-26T04:41:14.128Z,99910.84
2023-03-26T04:43:41.295Z,99916.38
2023-03-26T04:46:09.254Z,99918.53
2023-03-26T04:48:36.143Z,99916.88
2023-03-26T04:51:02.799Z,99916.25
2023-03-26T04:53:29.376Z,99925.78
2023-03-26T04:56:00.162Z,99927.72
2023-03-26T04:58:27.041Z,99930.78
2023-03-26T05:00:53.648Z,99931.31
2023-03-26T05:03:20.229Z,99934.00
2023-03-26T05:05:46.862Z,99921.94
2023-03-26T05:08:13.382Z,99921.34
2023-03-26T05:10:40.008Z,99923.19
2023-03-26T05:13:06.557Z,99916.44
2023-03-26T05:15:33.161Z,99929.31
2023-03-26T05:17:59.817Z,99929.69
2023-03-26T05:20:28.546Z,99928.03
2023-03-26T05:22:55.161Z,99931.06
2023-03-26T05:25:22.616Z,99932.75
2023-03-26T05:27:49.473Z,99927.47
2023-03-26T05:30:18.320Z,99934.03
2023-03-26T05:32:46.010Z,99937.28
2023-03-26T05:35:12.762Z,99941.81
2023-03-26T05:37:39.947Z,99947.09
2023-03-26T05:40:08.056Z,99944.81
2023-03-26T05:42:34.647Z,99945.03
2023-03-26T05:45:01.174Z,99942.84
2023-03-26T05:47:27.723Z,99952.56
2023-03-26T05:49:54.343Z,99951.75
2023-03-26T05:52:21.023Z,99953.72
2023-03-26T05:54:47.582Z,99944.63
2023-03-26T05:57:14.322Z,99948.41
2023-03-26T05:59:41.004Z,99933.53
2023-03-26T06:02:09.421Z,99945.31
2023-03-26T06:04:36.159Z,99953.25
2023-03-26T06:07:02.799Z,99961.56
2023-03-26T06:09:29.375Z,99956.50
2023-03-26T06:11:56.010Z,99960.63
2023-03-26T06:14:22.713Z,99960.16
2023-03-26T06:16:49.360Z,99953.78
2023-03-26T06:19:15.907Z,99965.78
2023-03-26T06:21:42.440Z,99973.13
2023-03-26T06:24:09.020Z,99970.59
2023-03-26T06:26:35.549Z,99968.84
2023-03-26T06:29:02.130Z,99976.28
2023-03-26T06:31:28.707Z,99970.94
2023-03-26T06:33:55.413Z,99980.81
2023-03-26T06:36:21.985Z,99975.41
2023-03-26T06:38:48.576Z,99986.06
2023-03-26T06:41:15.140Z,99981.44
2023-03-26T06:43:41.828Z,99989.78
2023-03-26T06:46:09.169Z,99977.25
2023-03-26T06:48:37.315Z,99985.13
2023-03-26T06:51:04.093Z,99990.72
2023-03-26T06:53:30.693Z,99991.28
2023-03-26T06:55:57.326Z,99991.06
2023-03-26T06:58:24.060Z,99984.81
2023-03-26T07:00:54.186Z,99986.28
2023-03-26T07:03:21.248Z,99979.19
2023-03-26T07:05:48.206Z,99985.78
2023-03-26T07:08:14.969Z,99991.53
2023-03-26T07:10:42.136Z,99992.41
2023-03-26T07:13:08.814Z,99987.00
2023-03-26T07:15:35.416Z,99982.38
2023-03-26T07:18:01.971Z,99982.63
2023-03-26T07:20:29.072Z,99993.81
2023-03-26T07:22:56.125Z,99992.97
2023-03-26T07:25:22.911Z,100005.75
2023-03-26T07:27:58.637Z,99994.88
2023-03-26T07:30:46.960Z,99995.38
2023-03-26T07:33:25.915Z,99987.06
2023-03-26T07:36:00.742Z,99984.56
2023-03-26T07:38:36.427Z,99994.19
2023-03-26T07:41:21.154Z,99989.31
2023-03-26T07:43:55.796Z,99989.41
2023-03-26T07:46:29.213Z,99995.00
2023-03-26T07:48:56.138Z,99977.25
2023-03-26T07:51:22.978Z,99989.09
2023-03-26T07:53:49.982Z,99991.06
2023-03-26T07:56:17.653Z,100000.50
2023-03-26T07:58:59.409Z,99992.19
2023-03-26T08:02:03.192Z,99996.28
2023-03-26T08:04:46.020Z,99989.47
2023-03-26T08:07:21.581Z,99991.53
2023-03-26T08:10:13.290Z,99991.44
2023-03-26T08:13:06.148Z,99987.50
2023-03-26T08:15:44.234Z,99987.63
2023-03-26T08:18:10.792Z,99993.63
2023-03-26T08:20:51.179Z,99990.41
2023-03-26T08:23:31.965Z,99985.34
2023-03-26T08:26:08.216Z,99993.59
2023-03-26T08:28:53.512Z,99993.25
2023-03-26T08:31:28.742Z,99997.19
2023-03-26T08:33:55.601Z,99995.13
2023-03-26T08:36:22.128Z,99996.84
2023-03-26T08:38:48.681Z,99992.06
2023-03-26T08:41:17.988Z,100003.25
2023-03-26T08:44:12.335Z,99996.72
2023-03-26T08:46:44.768Z,100002.28
2023-03-26T08:49:45.070Z,99998.69
2023-03-26T08:52:14.337Z,100002.63
2023-03-26T08:55:21.885Z,99996.59
2023-03-26T08:58:03.853Z,99987.94
2023-03-26T09:00:48.710Z,99990.25
2023-03-26T09:04:19.906Z,99993.41
2023-03-26T09:07:26.493Z,99989.78
2023-03-26T09:10:34.976Z,99994.94
2023-03-26T09:13:07.580Z,99991.41
2023-03-26T09:15:43.761Z,99992.63
2023-03-26T09:18:43.743Z,99992.44
2023-03-26T09:21:21.022Z,99998.56
2023-03-26T09:24:15.377Z,100000.66
2023-03-26T09:27:05.994Z,99995.69
2023-03-26T09:29:41.642Z,100001.22
2023-03-26T09:32:45.217Z,99991.69
2023-03-26T09:35:25.986Z,99990.84
2023-03-26T09:38:18.038Z,99985.72
2023-03-26T09:40:55.952Z,99981.91
2023-03-26T09:43:44.431Z,99985.97
2023-03-26T09:46:26.072Z,99990.00
2023-03-26T09:49:13.815Z,99978.91
2023-03-26T09:51:58.398Z,99980.28
2023-03-26T09:54:46.138Z,99969.09
2023-03-26T09:57:29.255Z,99970.91
2023-03-26T10:00:14.042Z,99965.06
2023-03-26T10:02:54.255Z,99966.31
2023-03-26T10:05:54.890Z,99971.13
2023-03-26T10:08:32.222Z,99960.09
2023-03-26T10:11:05.352Z,99958.06
2023-03-26T10:13:56.374Z,99944.84
2023-03-26T10:16:48.861Z,99952.84
2023-03-26T10:19:24.470Z,99946.88
2023-03-26T10:22:06.766Z,99946.59
2023-03-26T10:24:39.750Z,99950.09
2023-03-26T10:27:24.316Z,99939.63
2023-03-26T10:30:13.169Z,99937.31
2023-03-26T10:33:17.142Z,99929.03
2023-03-26T10:36:05.647Z,99935.38
2023-03-26T10:38:50.285Z,99929.88
2023-03-26T10:41:35.690Z,99937.41
2023-03-26T10:44:22.624Z,99917.03
2023-03-26T10:47:32.782Z,99924.88
2023-03-26T10:50:40.903Z,99923.88
2023-03-26T10:53:11.495Z,99917.84
2023-03-26T10:55:42.466Z,99921.59
2023-03-26T10:58:18.795Z,99920.41
2023-03-26T11:01:14.670Z,99921.38
2023-03-26T11:03:52.988Z,99918.78
2023-03-26T11:06:36.993Z,99924.88
2023-03-26T11:09:10.596Z,99916.53
2023-03-26T11:11:40.190Z,99908.78
2023-03-26T11:14:34.460Z,99907.22
2023-03-26T11:17:04.593Z,99907.25
2023-03-26T11:19:54.252Z,99902.69
2023-03-26T11:22:36.962Z,99893.25
2023-03-26T11:25:26.842Z,99892.66
2023-03-26T11:28:15.278Z,99883.81
2023-03-26T11:31:04.702Z,99887.66
2023-03-26T11:33:37.305Z,99880.28
2023-03-26T11:36:16.979Z,99876.16
2023-03-26T11:38:49.915Z,99864.38
2023-03-26T11:41:23.579Z,99868.78
2023-03-26T11:44:00.914Z,99861.88
2023-03-26T11:46:27.690Z,99853.78
2023-03-26T11:49:08.321Z,99851.84
2023-03-26T11:51:37.642Z,99846.34
2023-03-26T11:54:06.448Z,99846.09
2023-03-26T11:57:04.637Z,99843.63
2023-03-26T11:59:48.919Z,99839.59
2023-03-26T12:02:30.244Z,99838.41
2023-03-26T12:05:18.535Z,99845.25
2023-03-26T12:08:00.160Z,99828.38
2023-03-26T12:10:41.583Z,99833.38
2023-03-26T12:13:26.806Z,99823.06
2023-03-26T12:15:58.815Z,99822.97
2023-03-26T12:18:27.776Z,99824.97
2023-03-26T12:21:15.289Z,99816.09
2023-03-26T12:23:56.854Z,99812.63
2023-03-26T12:26:39.423Z,99819.19
2023-03-26T12:29:12.523Z,99803.47
2023-03-26T12:32:09.734Z,99804.38
2023-03-26T12:34:38.507Z,99792.09
2023-03-26T12:37:06.772Z,99788.91
2023-03-26T12:40:10.777Z,99788.88
2023-03-26T12:44:51.384Z,99782.19
2023-03-26T12:45:19.865Z,99784.03
2023-03-26T12:47:58.982Z,99777.97
2023-03-26T12:50:40.346Z,99774.50
2023-03-26T12:53:32.902Z,99769.59
2023-03-26T12:56:05.202Z,99773.41
2023-03-26T12:58:41.798Z,99771.47
2023-03-26T13:01:24.175Z,99753.50
2023-03-26T13:04:07.588Z,99754.47
2023-03-26T13:06:59.057Z,99748.97
2023-03-26T13:09:28.636Z,99755.28
2023-03-26T13:12:26.802Z,99736.28
2023-03-26T13:15:05.272Z,99735.09
2023-03-26T13:17:41.614Z,99729.25
2023-03-26T13:20:26.944Z,99718.22
2023-03-26T13:23:24.344Z,99720.94
2023-03-26T13:26:11.019Z,99713.69
2023-03-26T13:29:00.846Z,99720.47
2023-03-26T13:31:46.859Z,99709.91
2023-03-26T13:34:44.577Z,99723.16
2023-03-26T13:37:18.932Z,99720.13
2023-03-26T13:40:35.242Z,99707.66
2023-03-26T13:43:01.814Z,99712.44
2023-03-26T13:45:48.278Z,99713.63
2023-03-26T13:48:20.190Z,99707.56
2023-03-26T13:50:57.925Z,99700.53
2023-03-26T13:53:31.926Z,99696.69
2023-03-26T13:56:00.459Z,99694.41
2023-03-26T13:58:36.291Z,99702.06
2023-03-26T14:01:10.697Z,99686.59
2023-03-26T14:03:43.450Z,99685.88
2023-03-26T14:06:28.071Z,99676.59
2023-03-26T14:09:04.919Z,99680.28
2023-03-26T14:11:40.368Z,99673.41
2023-03-26T14:14:13.146Z,99675.75
2023-03-26T14:16:48.311Z,99676.13
2023-03-26T14:20:05.532Z,99667.53
2023-03-26T14:22:50.396Z,99666.94
2023-03-26T14:25:31.603Z,99664.06
2023-03-26T14:28:25.717Z,99663.06
2023-03-26T14:30:54.999Z,99663.72
2023-03-26T14:33:47.465Z,99654.75
2023-03-26T14:36:45.917Z,99648.00
2023-03-26T14:39:43.191Z,99641.84
2023-03-26T14:42:24.802Z,99639.53
2023-03-26T14:45:26.693Z,99633.16
2023-03-26T14:48:09.930Z,99636.59
2023-03-26T14:50:51.303Z,99627.94
2023-03-26T14:53:41.497Z,99619.47
2023-03-26T14:56:26.086Z,99622.59
2023-03-26T14:59:12.841Z,99616.91
2023-03-26T15:02:16.165Z,99624.38
2023-03-26T15:05:20.280Z,99619.13
2023-03-26T15:08:35.240Z,99616.34
2023-03-26T15:11:04.726Z,99618.03
2023-03-26T15:14:03.770Z,99614.81
2023-03-26T15:16:51.801Z,99610.91
2023-03-26T15:19:36.857Z,99615.47
2023-03-26T15:22:20.741Z,99614.38
2023-03-26T15:25:11.914Z,99606.22
2023-03-26T15:27:56.883Z,99602.66
2023-03-26T15:30:42.082Z,99607.81
2023-03-26T15:33:30.078Z,99600.41
2023-03-26T15:36:28.897Z,99609.50
2023-03-26T15:39:26.474Z,99602.53
2023-03-26T15:42:26.523Z,99600.16
2023-03-26T15:44:59.198Z,99598.66
2023-03-26T15:47:51.149Z,99594.59
2023-03-26T15:50:24.052Z,99588.31
2023-03-26T15:53:28.040Z,99582.06
2023-03-26T15:56:00.362Z,99580.19
2023-03-26T15:58:34.816Z,99586.59
2023-03-26T16:02:05.788Z,99574.38
2023-03-26T16:04:52.864Z,99566.38
2023-03-26T16:08:00.377Z,99556.03
2023-03-26T16:10:39.330Z,99568.00
2023-03-26T16:13:17.668Z,99560.19
2023-03-26T16:15:53.526Z,99557.50
2023-03-26T16:18:30.676Z,99552.03
2023-03-26T16:21:30.564Z,99540.50
2023-03-26T16:24:02.390Z,99542.25
2023-03-26T16:26:54.351Z,99538.72
2023-03-26T16:29:26.539Z,99531.63
2023-03-26T16:32:25.251Z,99517.53
2023-03-26T16:34:56.749Z,99524.28
2023-03-26T16:37:32.567Z,99518.03
2023-03-26T16:40:17.512Z,99518.47
2023-03-26T16:43:06.106Z,99521.06
2023-03-26T16:46:00.413Z,99516.28
2023-03-26T16:48:45.691Z,99511.47
2023-03-26T16:51:33.649Z,99512.19
2023-03-26T16:54:16.179Z,99509.38
2023-03-26T16:56:50.824Z,99515.75
2023-03-26T17:00:06.592Z,99512.91
2023-03-26T17:03:09.845Z,99511.72
2023-03-26T17:05:38.099Z,99509.50
2023-03-26T17:08:43.313Z,99501.56
2023-03-26T17:11:26.671Z,99505.00
2023-03-26T17:14:19.295Z,99504.94
2023-03-26T17:17:04.050Z,99492.59
2023-03-26T17:19:46.543Z,99506.22
2023-03-26T17:22:34.931Z,99495.03
2023-03-26T17:25:36.709Z,99494.91
2023-03-26T17:28:25.318Z,99493.00
2023-03-26T17:31:15.396Z,99490.59
2023-03-26T17:33:42.399Z,99488.84
2023-03-26T17:36:12.013Z,99490.84
2023-03-26T17:38:38.526Z,99488.25
2023-03-26T17:41:09.044Z,99489.28
2023-03-26T17:43:51.660Z,99485.03
2023-03-26T17:46:42.284Z,99491.16
2023-03-26T17:49:19.083Z,99489.03
2023-03-26T17:52:12.168Z,99494.13
2023-03-26T17:54:46.021Z,99495.50
2023-03-26T17:57:24.389Z,99484.09
2023-03-26T17:59:56.633Z,99485.09
2023-03-26T18:02:34.522Z,99483.66
2023-03-26T18:05:03.678Z,99488.56
2023-03-26T18:07:36.128Z,99487.41
2023-03-26T18:10:11.329Z,99491.53
2023-03-26T18:13:11.800Z,99484.69
2023-03-26T18:15:43.169Z,99486.38
2023-03-26T18:18:11.568Z,99486.84
2023-03-26T18:20:38.707Z,99485.41
2023-03-26T18:23:20.995Z,99479.56
2023-03-26T18:25:55.846Z,99476.13
2023-03-26T18:28:30.350Z,99467.16
2023-03-26T18:31:08.387Z,99461.78
2023-03-26T18:33:43.977Z,99468.31
2023-03-26T18:36:11.593Z,99469.47
2023-03-26T18:38:39.487Z,99470.28
2023-03-26T18:41:15.015Z,99470.44
2023-03-26T18:43:44.453Z,99464.75
2023-03-26T18:46:13.808Z,99468.47
2023-03-26T18:48:41.033Z,99462.94
2023-03-26T18:51:08.183Z,99458.06
2023-03-26T18:53:47.519Z,99450.88
2023-03-26T18:56:35.551Z,99450.53
2023-03-26T18:59:04.716Z,99443.88
2023-03-26T19:01:34.610Z,99442.88
2023-03-26T19:04:04.885Z,99448.09
2023-03-26T19:06:33.580Z,99438.78
2023-03-26T19:09:00.264Z,99437.97
2023-03-26T19:11:28.406Z,99431.47
2023-03-26T19:14:07.728Z,99429.31
2023-03-26T19:16:35.484Z,99422.00
2023-03-26T19:19:07.758Z,99415.94
2023-03-26T19:21:35.762Z,99424.06
2023-03-26T19:24:04.349Z,99428.94
2023-03-26T19:26:31.261Z,99420.00
2023-03-26T19:28:58.554Z,99413.00
2023-03-26T19:31:31.939Z,99429.06
2023-03-26T19:34:01.699Z,99417.84
2023-03-26T19:36:33.072Z,99417.47
2023-03-26T19:38:59.542Z,99416.00
2023-03-26T19:41:38.172Z,99419.56
2023-03-26T19:44:26.264Z,99414.50
2023-03-26T19:47:01.016Z,99413.69
2023-03-26T19:49:31.675Z,99415.28
2023-03-26T19:52:16.602Z,99401.44
2023-03-26T19:54:59.940Z,99404.66
2023-03-26T19:57:32.288Z,99401.22
2023-03-26T19:59:59.741Z,99397.16
2023-03-26T20:02:27.339Z,99393.38
2023-03-26T20:04:54.282Z,99389.00
2023-03-26T20:07:22.535Z,99388.69
2023-03-26T20:10:03.438Z,99391.13
2023-03-26T20:12:29.977Z,99382.66
2023-03-26T20:14:57.107Z,99380.69
2023-03-26T20:17:23.677Z,99372.22
2023-03-26T20:19:50.257Z,99373.97
2023-03-26T20:22:19.179Z,99375.94
2023-03-26T20:24:46.417Z,99361.59
2023-03-26T20:27:13.671Z,99371.03
2023-03-26T20:29:41.297Z,99363.69
2023-03-26T20:32:26.491Z,99364.72
2023-03-26T20:34:53.845Z,99351.53
2023-03-26T20:37:20.608Z,99347.44
2023-03-26T20:39:47.115Z,99342.22
2023-03-26T20:42:15.820Z,99332.63
2023-03-26T20:44:42.920Z,99323.22
2023-03-26T20:47:12.429Z,99323.22
2023-03-26T20:49:39.023Z,99312.66
2023-03-26T20:52:06.020Z,99303.06
2023-03-26T20:54:32.755Z,99305.63
2023-03-26T20:56:59.432Z,99297.97
2023-03-26T20:59:27.261Z,99301.88
2023-03-26T21:01:55.533Z,99298.47
2023-03-26T21:04:23.101Z,99298.16
2023-03-26T21:06:49.679Z,99280.59
2023-03-26T21:09:19.444Z,99288.09
2023-03-26T21:12:04.753Z,99285.16
2023-03-26T21:14:33.818Z,99290.69
2023-03-26T21:17:01.632Z,99278.78
2023-03-26T21:19:28.520Z,99273.44
2023-03-26T21:22:13.622Z,99271.16
2023-03-26T21:24:47.982Z,99263.72
2023-03-26T21:27:17.198Z,99262.91
2023-03-26T21:29:44.021Z,99253.78
2023-03-26T21:32:11.550Z,99250.38
2023-03-26T21:34:42.068Z,99246.91
2023-03-26T21:37:15.202Z,99239.94
2023-03-26T21:39:42.056Z,99237.16
2023-03-26T21:42:10.535Z,99237.50
2023-03-26T21:44:37.592Z,99228.72
2023-03-26T21:47:05.273Z,99230.34
2023-03-26T21:49:32.838Z,99230.69
2023-03-26T21:51:59.592Z,99226.78
2023-03-26T21:54:31.206Z,99222.41
2023-03-26T21:57:21.928Z,99221.72
2023-03-26T22:00:14.094Z,99224.00
2023-03-26T22:02:52.802Z,99218.97
2023-03-26T22:05:25.144Z,99208.88
2023-03-26T22:07:56.927Z,99203.06
2023-03-26T22:10:23.602Z,99199.47
2023-03-26T22:12:50.793Z,99186.44
2023-03-26T22:15:17.587Z,99181.09
2023-03-26T22:17:44.705Z,99180.28
2023-03-26T22:20:13.682Z,99177.81
2023-03-26T22:22:41.889Z,99185.31
2023-03-26T22:25:09.072Z,99171.31
2023-03-26T22:27:44.098Z,99179.44
2023-03-26T22:30:12.589Z,99175.53
2023-03-26T22:32:39.590Z,99173.78
2023-03-26T22:35:06.807Z,99168.25
2023-03-26T22:37:33.802Z,99164.34
2023-03-26T22:40:00.389Z,99161.41
2023-03-26T22:42:27.276Z,99162.72
2023-03-26T22:44:54.128Z,99154.25
2023-03-26T22:47:20.771Z,99152.81
2023-03-26T22:49:47.455Z,99146.81
2023-03-26T22:52:14.007Z,99140.78
2023-03-26T22:54:40.546Z,99141.94
2023-03-26T22:57:07.191Z,99141.44
2023-03-26T22:59:33.724Z,99142.25
2023-03-26T23:02:00.332Z,99137.03
2023-03-26T23:04:31.637Z,99140.44
2023-03-26T23:06:58.900Z,99139.50
2023-03-26T23:09:25.592Z,99125.97
2023-03-26T23:11:52.153Z,99118.97
2023-03-26T23:14:18.760Z,99129.75
2023-03-26T23:16:45.382Z,99125.84
2023-03-26T23:19:12.382Z,99115.94
2023-03-26T23:21:39.214Z,99112.34
2023-03-26T23:24:06.085Z,99103.41
2023-03-26T23:26:37.737Z,99099.00
2023-03-26T23:29:10.821Z,99103.72
2023-03-26T23:31:37.433Z,99093.66
2023-03-26T23:34:03.994Z,99105.03
2023-03-26T23:36:30.621Z,99088.94
2023-03-26T23:38:57.245Z,99091.53
2023-03-26T23:41:23.922Z,99082.09
2023-03-26T23:43:53.355Z,99075.44
2023-03-26T23:46:22.982Z,99067.31
2023-03-26T23:48:50.149Z,99071.03
2023-03-26T23:51:20.890Z,99067.75
2023-03-26T23:53:48.298Z,99068.09
2023-03-26T23:56:15.228Z,99065.34
2023-03-26T23:58:42.429Z,99068.25
